地図

経路データ

SID SEASON NUMBER BASIN SUBBASIN NAME ISO_TIME NATURE LAT LON WMO_WIND WMO_PRES WMO_AGENCY TRACK_TYPE DIST2LAND LANDFALL IFLAG USA_AGENCY USA_ATCF_ID USA_LAT USA_LON USA_RECORD USA_STATUS USA_WIND USA_PRES USA_SSHS USA_R34_NE USA_R34_SE USA_R34_SW USA_R34_NW USA_R50_NE USA_R50_SE USA_R50_SW USA_R50_NW USA_R64_NE USA_R64_SE USA_R64_SW USA_R64_NW USA_POCI USA_ROCI USA_RMW USA_EYE TOKYO_LAT TOKYO_LON TOKYO_GRADE TOKYO_WIND TOKYO_PRES TOKYO_R50_DIR TOKYO_R50_LONG TOKYO_R50_SHORT TOKYO_R30_DIR TOKYO_R30_LONG TOKYO_R30_SHORT TOKYO_LAND CMA_LAT CMA_LON CMA_CAT CMA_WIND CMA_PRES HKO_LAT HKO_LON HKO_CAT HKO_WIND HKO_PRES NEWDELHI_LAT NEWDELHI_LON NEWDELHI_GRADE NEWDELHI_WIND NEWDELHI_PRES NEWDELHI_CI NEWDELHI_DP NEWDELHI_POCI REUNION_LAT REUNION_LON REUNION_TYPE REUNION_WIND REUNION_PRES REUNION_TNUM REUNION_CI REUNION_RMW REUNION_R34_NE REUNION_R34_SE REUNION_R34_SW REUNION_R34_NW REUNION_R50_NE REUNION_R50_SE REUNION_R50_SW REUNION_R50_NW REUNION_R64_NE REUNION_R64_SE REUNION_R64_SW REUNION_R64_NW BOM_LAT BOM_LON BOM_TYPE BOM_WIND BOM_PRES BOM_TNUM BOM_CI BOM_RMW BOM_R34_NE BOM_R34_SE BOM_R34_SW BOM_R34_NW BOM_R50_NE BOM_R50_SE BOM_R50_SW BOM_R50_NW BOM_R64_NE BOM_R64_SE BOM_R64_SW BOM_R64_NW BOM_ROCI BOM_POCI BOM_EYE BOM_POS_METHOD BOM_PRES_METHOD NADI_LAT NADI_LON NADI_CAT NADI_WIND NADI_PRES WELLINGTON_LAT WELLINGTON_LON WELLINGTON_WIND WELLINGTON_PRES DS824_LAT DS824_LON DS824_STAGE DS824_WIND DS824_PRES TD9636_LAT TD9636_LON TD9636_STAGE TD9636_WIND TD9636_PRES TD9635_LAT TD9635_LON TD9635_WIND TD9635_PRES TD9635_ROCI NEUMANN_LAT NEUMANN_LON NEUMANN_CLASS NEUMANN_WIND NEUMANN_PRES MLC_LAT MLC_LON MLC_CLASS MLC_WIND MLC_PRES USA_GUST BOM_GUST BOM_GUST_PER REUNION_GUST REUNION_GUST_PER USA_SEAHGT USA_SEARAD_NE USA_SEARAD_SE USA_SEARAD_SW USA_SEARAD_NW STORM_SPEED STORM_DIR
1993231N09134 1993 57 WP MM WINONA 1993-08-19 06:00:00 NR 9.00000 134.000 main 827 784 O_____________ jtwc_wp WP181993 9.00000 134.000 20 -1 9 276
1993231N09134 1993 57 WP MM WINONA 1993-08-19 09:00:00 NR 9.05012 133.543 main 775 732 P_____________ WP181993 9.05012 133.543 20 -1 9 276
1993231N09134 1993 57 WP MM WINONA 1993-08-19 12:00:00 NR 9.10000 133.100 main 732 689 O_____________ jtwc_wp WP181993 9.10000 133.100 20 -1 9 277
1993231N09134 1993 57 WP MM WINONA 1993-08-19 15:00:00 NR 9.14995 132.685 main 689 649 P_____________ WP181993 9.14995 132.685 20 -1 8 277
1993231N09134 1993 57 WP MM WINONA 1993-08-19 18:00:00 NR 9.20000 132.300 main 649 617 O_____________ jtwc_wp WP181993 9.20000 132.300 20 -1 7 278
1993231N09134 1993 57 WP MM WINONA 1993-08-19 21:00:00 NR 9.24994 131.943 main 607 578 P_____________ WP181993 9.24994 131.943 20 -1 7 278
1993231N09134 1993 57 WP MM WINONA 1993-08-20 00:00:00 NR 9.30000 131.600 main 578 547 O_____________ jtwc_wp WP181993 9.30000 131.600 20 -1 7 278
1993231N09134 1993 57 WP MM WINONA 1993-08-20 03:00:00 NR 9.34997 131.250 main 547 509 P_____________ WP181993 9.34997 131.250 20 -1 7 278
1993231N09134 1993 57 WP MM WINONA 1993-08-20 06:00:00 NR 9.40000 130.900 main 509 477 O_____________ jtwc_wp WP181993 9.40000 130.900 20 -1 7 278
1993231N09134 1993 57 WP MM WINONA 1993-08-20 09:00:00 NR 9.45001 130.535 main 468 435 P_____________ WP181993 9.45001 130.535 20 -1 7 278
1993231N09134 1993 57 WP MM WINONA 1993-08-20 12:00:00 NR 9.50000 130.200 main 435 414 O_____________ jtwc_wp WP181993 9.50000 130.200 20 -1 6 280
1993231N09134 1993 57 WP MM WINONA 1993-08-20 15:00:00 NR 9.54989 129.957 main 414 384 P_____________ WP181993 9.54989 129.957 20 -1 5 281
1993231N09134 1993 57 WP MM WINONA 1993-08-20 18:00:00 NR 9.60000 129.700 main 384 341 O_____________ jtwc_wp WP181993 9.60000 129.700 20 -1 6 278
1993231N09134 1993 57 WP MM WINONA 1993-08-20 21:00:00 NR 9.64257 129.307 main 341 301 P_____________ WP181993 9.64257 129.307 20 -1 8 277
1993231N09134 1993 57 WP MM WINONA 1993-08-21 00:00:00 NR 9.70000 128.900 main 301 271 O_____________ jtwc_wp WP181993 9.70000 128.900 20 -1 7 282
1993231N09134 1993 57 WP MM WINONA 1993-08-21 03:00:00 NR 9.78483 128.615 main 271 243 P_____________ WP181993 9.78483 128.615 22 -1 6 289
1993231N09134 1993 57 WP MM WINONA 1993-08-21 06:00:00 NR 9.90000 128.300 main 243 206 O_____________ jtwc_wp WP181993 9.90000 128.300 25 -1 8 288
1993231N09134 1993 57 WP MM WINONA 1993-08-21 09:00:00 NR 10.0275 127.845 main 197 162 P_____________ WP181993 10.0275 127.845 25 -1 10 287
1993231N09134 1993 57 WP MM WINONA 1993-08-21 12:00:00 NR 10.2000 127.300 main 162 128 O_____________ jtwc_wp WP181993 10.2000 127.300 25 -1 12 290
1993231N09134 1993 57 WP MM WINONA 1993-08-21 15:00:00 NR 10.4274 126.722 main 119 46 P_____________ WP181993 10.4274 126.722 25 -1 13 293
1993231N09134 1993 57 WP MM WINONA 1993-08-21 18:00:00 NR 10.7000 126.100 main 46 11 O_____________ jtwc_wp WP181993 10.7000 126.100 25 -1 14 295
1993231N09134 1993 57 WP MM WINONA 1993-08-21 21:00:00 NR 11.0150 125.435 main 11 0 P_____________ WP181993 11.0150 125.435 25 -1 14 295
1993231N09134 1993 57 WP MM WINONA 1993-08-22 00:00:00 NR 11.3000 124.800 main 0 0 O_____________ jtwc_wp WP181993 11.3000 124.800 25 -1 12 293
1993231N09134 1993 57 WP MM WINONA 1993-08-22 03:00:00 NR 11.4872 124.285 main 10 10 P_____________ WP181993 11.4872 124.285 25 -1 6 305
1993231N09134 1993 57 WP MM WINONA 1993-08-22 06:00:00 TS 11.6500 124.283 1006 tokyo main 21 0 OOO___________ jtwc_wp WP181993 11.6000 123.800 25 -1 11.5000 125.500 2 1006 0 0 0 12.0000 125.000 1 23 1006 4 297
1993231N09134 1993 57 WP MM WINONA 1993-08-22 09:00:00 TS 11.6651 123.932 main 15 15 PPP___________ WP181993 11.6800 123.250 25 -1 11.5504 124.750 2 1006 0 0 11.7501 124.477 1 26 1005 8 269
1993231N09134 1993 57 WP MM WINONA 1993-08-22 12:00:00 TS 11.6400 123.450 1006 tokyo main 40 11 OOO___________ jtwc_wp WP181993 11.7000 122.700 25 -1 11.6000 124.000 2 1006 0 0 0 11.6000 123.900 1 29 1004 10 269
1993231N09134 1993 57 WP MM WINONA 1993-08-22 15:00:00 TS 11.6399 122.893 main 11 0 PPP___________ WP181993 11.6573 122.200 27 -1 11.6498 123.250 2 1005 0 0 11.6124 123.230 1 29 1004 12 271
1993231N09134 1993 57 WP MM WINONA 1993-08-22 18:00:00 TS 11.6667 122.233 1004 tokyo main 0 0 OOO___________ jtwc_wp WP181993 11.6000 121.700 30 -1 11.7000 122.500 2 1004 0 0 0 11.7000 122.500 1 29 1004 13 272
1993231N09134 1993 57 WP MM WINONA 1993-08-22 21:00:00 TS 11.6926 121.522 main 34 34 PPP___________ WP181993 11.5775 121.150 30 -1 11.7501 121.698 2 1004 0 0 11.7501 121.720 1 29 1004 13 273
1993231N09134 1993 57 WP MM WINONA 1993-08-23 00:00:00 TS 11.7333 120.867 1004 tokyo main 60 60 OOO___________ jtwc_wp WP181993 11.6000 120.600 30 -1 11.8000 121.000 2 1004 0 0 0 11.8000 121.000 1 29 1004 11 275
1993231N09134 1993 57 WP MM WINONA 1993-08-23 03:00:00 TS 11.7948 120.355 main 88 78 PPP___________ WP181993 11.6850 120.070 32 -1 11.8496 120.555 2 1003 0 0 11.8498 120.440 1 29 1003 9 279
1993231N09134 1993 57 WP MM WINONA 1993-08-23 06:00:00 TS 11.8769 119.985 1002 tokyo main 80 67 OOOO__________ jtwc_wp WP181993 11.8000 119.600 35 0 11.9000 120.200 2 1002 0 0 0 11.9000 120.000 1 29 1002 12.0000 120.600 TD 25 1000 7 279
1993231N09134 1993 57 WP MM WINONA 1993-08-23 09:00:00 TS 11.9049 119.620 main 67 67 PPPP__________ WP181993 11.8698 119.235 35 0 11.9349 119.772 2 1000 0 0 11.9347 119.657 1 33 1000 11.8551 120.012 TD 30 997 8 276
1993231N09134 1993 57 WP MM WINONA 1993-08-23 12:00:00 TS 11.9600 119.213 35 998 tokyo main 84 84 OOOO__________ jtwc_wp WP181993 12.0000 118.900 35 0 12.0000 119.300 3 35 998 0 9 60 60 0 12.0000 119.300 2 38 998 11.8000 119.400 TS 35 995 9 282
1993231N09134 1993 57 WP MM WINONA 1993-08-23 15:00:00 TS 12.1014 118.687 main 124 124 PPPP__________ WP181993 12.2550 118.500 37 0 12.1201 118.735 3 35 996 0 9 75 75 12.1202 118.750 2 38 996 11.9101 118.763 TS 35 995 11 291
1993231N09134 1993 57 WP MM WINONA 1993-08-23 18:00:00 TS 12.3500 118.175 35 994 tokyo main 187 187 OOOO__________ jtwc_wp WP181993 12.6000 118.100 40 0 12.3000 118.200 3 35 994 0 9 90 90 0 12.3000 118.200 2 38 995 12.2000 118.200 TS 35 995 10 302
1993231N09134 1993 57 WP MM WINONA 1993-08-23 21:00:00 TS 12.6474 117.786 main 234 234 PPPP__________ WP181993 12.9775 117.727 40 0 12.4823 117.820 3 37 992 0 9 90 90 12.4823 117.820 2 38 993 12.6474 117.775 TS 37 995 10 316
1993231N09134 1993 57 WP MM WINONA 1993-08-24 00:00:00 TS 13.0500 117.475 40 990 tokyo main 296 296 OOOO__________ jtwc_wp WP181993 13.4000 117.400 40 0 12.8000 117.500 3 40 990 0 9 90 90 0 12.8000 117.500 2 38 992 13.2000 117.500 TS 40 995 11 328
1993231N09134 1993 57 WP MM WINONA 1993-08-24 03:00:00 TS 13.5887 117.188 main 336 336 PPPP__________ WP181993 13.8499 117.127 42 0 13.3625 117.128 3 40 990 0 9 90 90 13.3625 117.128 2 38 992 13.7799 117.370 TS 40 992 12 335
1993231N09134 1993 57 WP MM WINONA 1993-08-24 06:00:00 TS 14.1500 116.950 40 990 tokyo main 339 341 OOOO__________ jtwc_wp WP181993 14.3000 116.900 45 0 14.0000 116.800 3 40 990 0 9 90 90 0 14.0000 116.800 2 38 992 14.3000 117.300 TS 40 990 11 337
1993231N09134 1993 57 WP MM WINONA 1993-08-24 09:00:00 TS 14.6125 116.742 main 355 348 PPPP__________ WP181993 14.7150 116.677 45 0 14.5449 116.570 3 40 990 0 9 90 90 14.5374 116.570 2 38 992 14.6525 117.150 TS 40 990 9 337
1993231N09134 1993 57 WP MM WINONA 1993-08-24 12:00:00 TS 15.0000 116.575 40 990 tokyo main 350 347 OOOO__________ jtwc_wp WP181993 15.1000 116.500 45 0 15.0000 116.400 3 40 990 0 9 90 90 0 15.0000 116.400 2 38 992 14.9000 117.000 TS 40 990 8 338
1993231N09134 1993 57 WP MM WINONA 1993-08-24 15:00:00 TS 15.3206 116.441 main 362 357 PPPP__________ WP181993 15.4650 116.377 45 0 15.3300 116.235 3 40 990 0 9 90 90 15.3875 116.235 2 38 991 15.0999 116.915 TS 40 991 7 338
1993231N09134 1993 57 WP MM WINONA 1993-08-24 18:00:00 TS 15.6000 116.325 40 990 tokyo main 366 364 OOOO__________ jtwc_wp WP181993 15.8000 116.300 45 0 15.6000 116.100 3 40 990 0 9 90 90 0 15.7000 116.100 2 38 990 15.3000 116.800 TS 40 992 6 337
1993231N09134 1993 57 WP MM WINONA 1993-08-24 21:00:00 TS 15.8838 116.196 main 374 374 PPPP__________ WP181993 16.1150 116.242 45 0 15.8925 115.992 3 40 990 0 9 90 90 15.9500 115.992 2 38 990 15.5776 116.558 TS 40 992 6 337
1993231N09134 1993 57 WP MM WINONA 1993-08-25 00:00:00 TS 16.1750 116.075 40 990 tokyo main 385 385 OOOO__________ jtwc_wp WP181993 16.4000 116.200 45 0 16.2000 115.900 3 40 990 0 9 90 90 0 16.2000 115.900 2 38 990 15.9000 116.300 TS 40 992 7 340
1993231N09134 1993 57 WP MM WINONA 1993-08-25 03:00:00 TS 16.5131 115.962 main 399 399 PPPP__________ WP181993 16.6800 116.150 45 0 16.5650 115.785 3 40 990 0 9 90 90 16.5575 115.785 2 38 990 16.2500 116.127 TS 40 993 7 344
1993231N09134 1993 57 WP MM WINONA 1993-08-25 06:00:00 TS 16.8250 115.875 40 990 tokyo main 415 415 OOOO__________ jtwc_wp WP181993 16.9000 116.100 45 0 16.9000 115.700 3 40 990 0 9 90 90 0 16.9000 115.700 2 38 990 16.6000 116.000 TS 40 995 6 346
1993231N09134 1993 57 WP MM WINONA 1993-08-25 09:00:00 TS 17.0569 115.817 main 433 433 PPPP__________ WP181993 17.0225 116.050 45 0 17.1375 115.677 3 40 990 0 9 90 90 17.1375 115.677 2 38 990 16.9300 115.863 TS 37 997 4 351
1993231N09134 1993 57 WP MM WINONA 1993-08-25 12:00:00 TS 17.2250 115.800 40 990 tokyo main 436 436 OOOO__________ jtwc_wp WP181993 17.1000 116.000 45 0 17.3000 115.700 3 40 990 0 9 90 90 0 17.3000 115.700 2 38 990 17.2000 115.800 TS 35 1000 3 2
1993231N09134 1993 57 WP MM WINONA 1993-08-25 15:00:00 TS 17.3656 115.834 main 443 433 PPPP__________ WP181993 17.2000 115.950 45 0 17.4225 115.750 3 40 990 0 9 90 90 17.4225 115.750 2 38 990 17.4175 115.885 TS 37 997 2 16
1993231N09134 1993 57 WP MM WINONA 1993-08-25 18:00:00 TS 17.4500 115.875 40 990 tokyo main 436 436 OOOO__________ jtwc_wp WP181993 17.3000 115.900 45 0 17.5000 115.800 3 40 990 0 9 90 90 0 17.5000 115.800 2 38 990 17.5000 116.000 TS 40 995 1 19
1993231N09134 1993 57 WP MM WINONA 1993-08-25 21:00:00 TS 17.4644 115.874 main 436 436 PPPP__________ WP181993 17.4075 115.850 45 0 17.5500 115.808 3 40 991 0 9 85 85 17.5500 115.808 2 38 990 17.3500 116.030 TS 40 995 0 0
1993231N09134 1993 57 WP MM WINONA 1993-08-26 00:00:00 TS 17.4750 115.850 40 992 tokyo main 436 436 OOOO__________ jtwc_wp WP181993 17.5000 115.800 45 0 17.6000 115.800 3 40 992 0 9 80 80 0 17.6000 115.800 2 38 990 17.2000 116.000 TS 40 995 1 331
1993231N09134 1993 57 WP MM WINONA 1993-08-26 03:00:00 TS 17.5619 115.820 main 449 449 PPPP__________ WP181993 17.5575 115.757 42 0 17.6925 115.807 3 40 993 0 9 70 70 17.6925 115.807 2 38 990 17.3050 115.908 TS 35 997 2 340
1993231N09134 1993 57 WP MM WINONA 1993-08-26 06:00:00 TS 17.6750 115.775 40 994 tokyo main 453 453 OOOO__________ jtwc_wp WP181993 17.6000 115.700 40 0 17.8000 115.800 3 40 994 0 9 60 60 0 17.8000 115.800 2 38 990 17.5000 115.800 TD 30 1000 2 340
1993231N09134 1993 57 WP MM WINONA 1993-08-26 09:00:00 TS 17.7881 115.735 main 467 467 PPPP__________ WP181993 17.6500 115.622 40 0 17.9150 115.773 3 40 994 0 9 60 60 17.9150 115.780 2 38 990 17.6725 115.765 TD 30 1000 2 329
1993231N09134 1993 57 WP MM WINONA 1993-08-26 12:00:00 TS 17.8750 115.650 40 994 tokyo main 471 471 OOOO__________ jtwc_wp WP181993 17.7000 115.500 40 0 18.0000 115.700 3 40 994 0 9 60 60 0 18.0000 115.700 2 38 990 17.8000 115.700 TD 30 1000 3 298
1993231N09134 1993 57 WP MM WINONA 1993-08-26 15:00:00 TS 17.9100 115.493 main 490 490 PPPP__________ WP181993 17.7575 115.323 42 0 18.0224 115.588 3 40 994 0 9 60 60 18.0300 115.530 2 38 990 17.8300 115.530 TD 30 1000 4 274
1993231N09134 1993 57 WP MM WINONA 1993-08-26 18:00:00 TS 17.9000 115.275 40 994 tokyo main 491 471 OOOO__________ jtwc_wp WP181993 17.8000 115.100 45 0 18.0000 115.400 3 40 994 0 9 60 60 0 18.0000 115.300 2 38 990 17.8000 115.300 TD 30 1000 4 263
1993231N09134 1993 57 WP MM WINONA 1993-08-26 21:00:00 TS 17.8593 115.037 main 462 448 PPPP__________ WP181993 17.8149 114.873 45 0 17.9650 115.130 3 40 994 0 9 60 60 17.9074 115.072 2 38 990 17.7499 115.072 TD 30 1000 5 259
1993231N09134 1993 57 WP MM WINONA 1993-08-27 00:00:00 TS 17.8000 114.750 40 994 tokyo main 448 410 OOOO__________ jtwc_wp WP181993 17.8000 114.600 45 0 17.9000 114.800 3 40 994 0 9 60 60 0 17.8000 114.800 2 38 990 17.7000 114.800 TD 30 1000 6 260
1993231N09134 1993 57 WP MM WINONA 1993-08-27 03:00:00 TS 17.7594 114.411 main 410 389 PPPP__________ WP181993 17.7650 114.273 45 0 17.8075 114.450 3 40 994 0 9 60 60 17.7500 114.458 2 38 990 17.7150 114.465 TD 27 1000 7 261
1993231N09134 1993 57 WP MM WINONA 1993-08-27 06:00:00 TS 17.7000 114.050 40 994 tokyo main 389 361 OOOO__________ jtwc_wp WP181993 17.7000 113.900 45 0 17.7000 114.100 3 40 994 0 9 60 60 0 17.7000 114.100 2 38 990 17.7000 114.100 TD 25 1000 7 256
1993231N09134 1993 57 WP MM WINONA 1993-08-27 09:00:00 TS 17.5931 113.712 main 361 339 PPPP__________ WP181993 17.6075 113.500 45 0 17.5924 113.793 3 40 994 0 9 60 60 17.5999 113.792 2 38 990 17.5724 113.765 TD 27 1000 7 251
1993231N09134 1993 57 WP MM WINONA 1993-08-27 12:00:00 TS 17.4750 113.375 40 994 tokyo main 339 316 OOOO__________ jtwc_wp WP181993 17.5000 113.100 45 0 17.5000 113.500 3 40 994 0 9 60 60 0 17.5000 113.500 2 38 990 17.4000 113.400 TD 30 1000 7 252
1993231N09134 1993 57 WP MM WINONA 1993-08-27 15:00:00 TS 17.3855 113.042 main 307 286 PPPP__________ WP181993 17.3999 112.750 45 0 17.4499 113.215 3 40 994 0 9 60 60 17.4498 113.223 2 38 990 17.2424 112.980 TD 30 1000 7 255
1993231N09134 1993 57 WP MM WINONA 1993-08-27 18:00:00 TS 17.3000 112.675 40 994 tokyo main 286 261 OOOO__________ jtwc_wp WP181993 17.3000 112.400 45 0 17.4000 112.900 3 40 994 0 9 60 60 0 17.4000 112.900 2 38 990 17.1000 112.500 TD 30 1000 8 256
1993231N09134 1993 57 WP MM WINONA 1993-08-27 21:00:00 TS 17.2036 112.255 main 261 232 PPPP__________ WP181993 17.2000 112.008 45 0 17.3148 112.545 3 40 995 0 9 60 60 17.3149 112.488 2 38 992 16.9848 111.980 TD 32 997 9 257
1993231N09134 1993 57 WP MM WINONA 1993-08-28 00:00:00 TS 17.1000 111.775 40 996 tokyo main 232 208 OOOO__________ jtwc_wp WP181993 17.1000 111.600 45 0 17.2000 112.100 3 40 996 0 9 60 60 0 17.2000 112.000 2 38 995 16.9000 111.400 TS 35 995 10 257
1993231N09134 1993 57 WP MM WINONA 1993-08-28 03:00:00 TS 16.9817 111.255 main 208 180 PPPP__________ WP181993 16.9924 111.208 45 0 17.0498 111.552 3 40 996 0 9 75 75 17.0497 111.495 2 38 995 16.8349 110.765 TS 35 995 11 258
1993231N09134 1993 57 WP MM WINONA 1993-08-28 06:00:00 TS 16.8750 110.675 40 996 tokyo main 180 162 OOOO__________ jtwc_wp WP181993 16.9000 110.800 45 0 16.9000 110.900 3 40 996 0 9 90 90 0 16.9000 110.900 2 38 995 16.8000 110.100 TS 35 995 12 260
1993231N09134 1993 57 WP MM WINONA 1993-08-28 09:00:00 TS 16.7845 110.025 main 159 141 PPPP__________ WP181993 16.8274 110.365 45 0 16.7703 110.142 3 40 996 0 9 90 90 16.7704 110.142 2 38 995 16.7698 109.450 TS 32 997 12 264
1993231N09134 1993 57 WP MM WINONA 1993-08-28 12:00:00 TS 16.7467 109.413 40 996 tokyo main 141 108 OOOO__________ jtwc_wp WP181993 16.8000 109.900 45 0 16.7000 109.400 3 40 996 0 9 90 90 0 16.7000 109.400 2 38 995 16.8000 108.800 TD 30 1000 11 269
1993231N09134 1993 57 WP MM WINONA 1993-08-28 15:00:00 TS 16.7667 108.894 main 108 79 PPPP__________ WP181993 16.8050 109.400 42 0 16.7122 108.798 3 40 996 0 9 90 90 16.7046 108.855 2 38 995 16.9229 108.150 TD 27 1000 9 277
1993231N09134 1993 57 WP MM WINONA 1993-08-28 18:00:00 TS 16.8538 108.454 40 996 tokyo main 89 69 OOOO__________ jtwc_wp WP181993 16.9000 108.900 40 0 16.8000 108.300 3 40 996 0 9 90 90 0 16.8000 108.400 2 38 995 17.1000 107.500 TD 25 1000 8 288
1993231N09134 1993 57 WP MM WINONA 1993-08-28 21:00:00 TS 17.0081 108.095 main 69 59 PPP___________ WP181993 17.1124 108.443 40 0 16.9272 107.892 3 37 997 0 9 90 90 16.9848 107.950 2 38 995 TD 8 297
1993231N09134 1993 57 WP MM WINONA 1993-08-29 00:00:00 TS 17.2333 107.667 35 998 tokyo main 61 35 OOO___________ jtwc_wp WP181993 17.4000 108.000 40 0 17.1000 107.500 3 35 998 0 9 90 90 0 17.2000 107.500 2 38 995 9 297
1993231N09134 1993 57 WP MM WINONA 1993-08-29 03:00:00 TS 17.4422 107.216 main 35 15 PPP___________ WP181993 17.6999 107.550 37 0 17.2847 107.052 3 35 999 0 9 75 75 17.3421 107.045 2 33 997 10 294
1993231N09134 1993 57 WP MM WINONA 1993-08-29 06:00:00 TS 17.6500 106.680 35 1000 tokyo main 21 0 OOO___________ jtwc_wp WP181993 18.0000 107.100 35 0 17.5000 106.500 3 35 1000 0 9 60 60 0 17.5000 106.500 1 29 1000 12 291
1993231N09134 1993 57 WP MM WINONA 1993-08-29 09:00:00 TS 17.8878 106.006 main 0 0 PPP___________ WP181993 18.2627 106.650 32 -1 17.7801 105.788 3 1002 0 9 17.7284 105.798 1 26 1002 14 288
1993231N09134 1993 57 WP MM WINONA 1993-08-29 12:00:00 TS 18.1000 105.240 1004 tokyo main 0 0 OOO___________ jtwc_wp WP181993 18.5000 106.200 30 -1 18.0000 105.000 2 1004 0 0 0 18.0000 105.000 1 23 1004 17 276
1993231N09134 1993 57 WP MM WINONA 1993-08-29 15:00:00 TS 18.0529 104.237 main 0 0 _P____________ WP181993 -1 18.0529 104.237 2 1005 0 0 1 17 267
1993231N09134 1993 57 WP MM WINONA 1993-08-29 18:00:00 TS 18.0000 103.500 1006 tokyo main 0 _O____________ -1 18.0000 103.500 2 1006 0 0 0 14 266

デジタル台風データ・検索

IBTrACS Databaseについて

本データベースは、米国NOAAが公開する1842年以降の世界の熱帯低気圧のベストトラックデータアーカイブInternational Best Track Archive for Climate Stewardship (IBTrACS)を、ウェブで閲覧しやすい形式に変換したものです。

最終更新日:2021-10-27